Time;durP1;ratioP1;P1;durP2;ratioP2;P2;SDS_P1;SDS_P2;PMS_P1;PMS_P2;Temp;Humidity;BMP_temperature;BMP_pressure;BME280_temperature;BME280_humidity;BME280_pressure;Samples;Min_cycle;Max_cycle;Signal;HPM_P1;HPM_P2
2022/05/11 00:01:12;;;;;;;10.85;5.10;;;;;;;19.94;55.47;100911.16;4981895;28;20049;-65
2022/05/11 00:03:40;;;;;;;8.63;4.97;;;;;;;20.31;54.52;100917.03;4997914;28;20081;-70
2022/05/11 00:06:08;;;;;;;10.35;4.88;;;;;;;19.95;54.86;100918.34;5009691;28;20050;-65
2022/05/11 00:08:36;;;;;;;11.18;4.88;;;;;;;19.75;55.66;100919.59;5008166;28;20686;-64
2022/05/11 00:11:04;;;;;;;11.65;4.15;;;;;;;19.64;55.74;100912.97;5021760;28;20485;-64
2022/05/11 00:13:33;;;;;;;8.55;4.60;;;;;;;19.43;56.12;100909.75;5002957;28;20050;-63
2022/05/11 00:16:01;;;;;;;15.15;6.55;;;;;;;19.74;55.68;100910.38;4998308;28;20058;-63
2022/05/11 00:18:28;;;;;;;8.20;4.47;;;;;;;19.76;55.20;100916.41;5014509;28;20525;-64
2022/05/11 00:20:56;;;;;;;10.82;4.70;;;;;;;20.08;55.15;100909.41;4994227;28;20045;-65
2022/05/11 00:23:24;;;;;;;10.57;4.95;;;;;;;20.47;54.24;100900.91;4998387;28;20604;-64
2022/05/11 00:25:51;;;;;;;33.30;4.65;;;;;;;20.39;54.16;100897.19;4989399;28;20046;-65
2022/05/11 00:28:18;;;;;;;8.52;4.43;;;;;;;20.43;53.20;100891.66;5005937;28;20057;-65
2022/05/11 00:30:45;;;;;;;11.43;4.30;;;;;;;20.15;53.93;100891.97;5007041;28;20053;-64
2022/05/11 00:33:15;;;;;;;10.15;4.65;;;;;;;20.00;54.38;100882.50;5015311;28;20057;-65
2022/05/11 00:35:44;;;;;;;10.87;4.00;;;;;;;19.64;55.28;100885.84;5006290;28;20054;-65
2022/05/11 00:38:12;;;;;;;12.27;4.05;;;;;;;19.46;56.85;100881.06;4992613;28;20054;-64
2022/05/11 00:40:46;;;;;;;10.70;3.80;;;;;;;19.53;56.13;100879.22;4978217;28;20054;-64
2022/05/11 00:43:13;;;;;;;8.45;3.70;;;;;;;19.62;56.78;100882.59;5004231;28;20053;-65
2022/05/11 00:45:47;;;;;;;9.30;4.53;;;;;;;19.59;55.77;100876.94;4996766;28;20053;-65
2022/05/11 00:51:09;;;;;;;8.30;4.38;;;;;;;19.01;57.27;100867.75;5014670;28;20418;-64
2022/05/11 00:53:40;;;;;;;9.85;4.25;;;;;;;19.04;57.61;100867.00;5009332;28;20057;-64
2022/05/11 00:56:07;;;;;;;10.80;4.20;;;;;;;19.06;57.52;100873.03;5013373;28;20057;-64
2022/05/11 00:58:41;;;;;;;7.25;4.15;;;;;;;19.32;56.95;100867.63;4988156;28;20060;-64
2022/05/11 01:01:09;;;;;;;9.70;4.18;;;;;;;19.09;57.81;100859.16;5004274;28;20050;-64
2022/05/11 01:03:42;;;;;;;11.48;4.53;;;;;;;19.26;58.75;100857.91;5014621;28;20085;-64
2022/05/11 01:06:10;;;;;;;13.57;4.53;;;;;;;19.07;57.25;100855.13;4998692;28;20404;-65
2022/05/11 01:08:38;;;;;;;9.13;4.30;;;;;;;18.73;58.72;100847.56;5013285;28;20045;-65
2022/05/11 01:11:06;;;;;;;10.18;3.90;;;;;;;19.04;59.19;100847.44;5004047;28;20417;-64
2022/05/11 01:13:34;;;;;;;11.32;4.18;;;;;;;19.20;57.19;100837.03;4990658;28;20076;-64
2022/05/11 01:16:01;;;;;;;9.77;4.20;;;;;;;18.63;58.39;100845.38;5003450;28;20050;-64
2022/05/11 01:18:29;;;;;;;9.30;4.45;;;;;;;18.35;59.67;100845.47;5004389;28;20041;-64
2022/05/11 01:20:57;;;;;;;10.38;4.32;;;;;;;18.28;59.81;100842.53;5011674;28;20061;-64
2022/05/11 01:23:36;;;;;;;9.05;4.03;;;;;;;18.83;59.47;100844.19;5007144;28;20054;-64
2022/05/11 01:26:04;;;;;;;9.50;4.32;;;;;;;19.53;57.88;100839.28;5010866;28;20054;-65
2022/05/11 01:28:33;;;;;;;13.27;4.00;;;;;;;19.67;56.80;100831.97;5018624;28;20694;-64
2022/05/11 01:31:03;;;;;;;11.38;4.05;;;;;;;19.28;57.06;100833.22;5014992;28;20056;-64
2022/05/11 01:33:32;;;;;;;10.38;4.20;;;;;;;19.28;57.12;100829.59;5011606;28;20057;-65
2022/05/11 01:36:12;;;;;;;9.88;4.22;;;;;;;19.07;58.64;100830.00;5006784;28;20393;-64
2022/05/11 01:38:39;;;;;;;;;;;;;;;19.38;57.56;100827.06;5004446;28;20045;-64
2022/05/11 01:41:09;;;;;;;7.57;3.80;;;;;;;19.23;58.08;100829.91;5014199;28;20361;-64
2022/05/11 01:43:38;;;;;;;10.70;3.90;;;;;;;19.34;57.71;100836.53;4996994;28;20057;-63
2022/05/11 01:46:07;;;;;;;12.15;3.97;;;;;;;19.24;58.41;100825.94;4987285;28;20062;-63
2022/05/11 01:48:35;;;;;;;9.95;4.10;;;;;;;18.99;58.12;100831.00;5010450;28;20053;-65
2022/05/11 01:51:02;;;;;;;8.32;4.57;;;;;;;19.08;58.70;100838.00;5000019;28;20060;-63
2022/05/11 01:53:30;;;;;;;7.80;4.30;;;;;;;19.35;58.81;100836.19;5007080;28;20057;-65
2022/05/11 01:55:57;;;;;;;11.27;4.03;;;;;;;19.64;58.60;100829.13;5011343;28;20081;-64
2022/05/11 01:58:25;;;;;;;9.85;4.40;;;;;;;19.45;58.83;100829.97;5000063;28;20049;-64
2022/05/11 02:00:52;;;;;;;7.72;4.30;;;;;;;19.59;58.84;100826.63;5018120;28;20046;-64
2022/05/11 02:03:20;;;;;;;7.88;4.07;;;;;;;19.47;58.61;100824.84;5009758;28;20422;-64
2022/05/11 02:08:36;;;;;;;7.10;4.07;;;;;;;19.58;58.69;100822.25;4969712;28;20649;-65
2022/05/11 02:11:05;;;;;;;9.80;5.03;;;;;;;19.56;58.54;100827.38;4997987;28;20058;-65
2022/05/11 02:13:32;;;;;;;8.32;4.13;;;;;;;19.56;58.98;100824.59;5021830;28;20050;-64
2022/05/11 02:16:00;;;;;;;7.68;4.03;;;;;;;19.67;58.53;100820.81;5017883;28;20050;-63
2022/05/11 02:18:28;;;;;;;7.97;4.10;;;;;;;19.78;58.29;100821.81;5010702;28;20057;-64
2022/05/11 02:20:55;;;;;;;7.28;4.57;;;;;;;19.93;57.78;100822.84;4991746;28;20058;-64
2022/05/11 02:23:23;;;;;;;8.88;4.45;;;;;;;19.84;57.98;100814.72;5017933;28;20060;-64
2022/05/11 02:25:52;;;;;;;11.02;4.65;;;;;;;19.64;58.12;100818.75;5008359;28;20050;-64
2022/05/11 02:28:22;;;;;;;10.82;4.50;;;;;;;19.81;57.93;100823.03;5000265;28;20050;-65
2022/05/11 02:30:52;;;;;;;10.55;4.63;;;;;;;19.80;58.23;100815.84;5014783;28;20057;-64
2022/05/11 02:33:21;;;;;;;8.85;4.50;;;;;;;19.76;58.05;100818.56;5007088;28;20370;-64
2022/05/11 02:35:49;;;;;;;13.45;4.35;;;;;;;19.67;58.58;100818.00;5014393;28;20050;-64
2022/05/11 02:38:19;;;;;;;11.57;4.43;;;;;;;19.65;58.81;100823.16;4993595;28;20050;-65
2022/05/11 02:40:47;;;;;;;8.43;4.45;;;;;;;19.65;58.75;100811.97;5006836;28;20389;-65
2022/05/11 02:43:15;;;;;;;11.50;4.32;;;;;;;19.69;58.22;100812.88;4997254;28;20046;-64
2022/05/11 02:45:43;;;;;;;8.57;4.50;;;;;;;19.62;58.71;100812.72;5007670;28;20045;-65
2022/05/11 02:48:13;;;;;;;9.68;4.18;;;;;;;19.46;58.76;100806.44;5003854;28;20046;-65
2022/05/11 02:50:47;;;;;;;9.77;4.50;;;;;;;19.48;59.06;100811.66;5007639;28;20521;-66
2022/05/11 02:53:15;;;;;;;9.98;4.50;;;;;;;19.41;59.77;100806.75;4993653;28;20057;-65
2022/05/11 02:55:46;;;;;;;11.43;4.50;;;;;;;19.50;59.28;100798.94;4999739;28;20072;-64
2022/05/11 02:58:15;;;;;;;9.88;4.50;;;;;;;19.41;59.01;100798.38;5016736;28;20049;-63
2022/05/11 03:00:44;;;;;;;11.07;4.60;;;;;;;19.18;59.74;100799.50;4998548;28;20465;-65
2022/05/11 03:03:14;;;;;;;13.35;5.00;;;;;;;19.17;60.69;100807.06;5024476;28;20161;-64
2022/05/11 03:05:42;;;;;;;7.53;4.18;;;;;;;19.16;60.39;100797.03;4999361;28;20087;-63
2022/05/11 03:08:10;;;;;;;8.65;5.18;;;;;;;19.33;59.52;100796.63;4991459;28;20058;-64
2022/05/11 03:10:39;;;;;;;12.98;4.85;;;;;;;19.05;60.21;100799.66;5012161;28;20052;-64
2022/05/11 03:13:07;;;;;;;12.30;5.00;;;;;;;19.19;60.66;100801.91;5023472;28;20053;-63
2022/05/11 03:15:34;;;;;;;10.32;5.00;;;;;;;19.30;60.14;100802.94;5020432;28;20054;-64
2022/05/11 03:18:02;;;;;;;10.88;4.60;;;;;;;19.04;61.02;100802.78;5007111;28;20059;-63
2022/05/11 03:20:30;;;;;;;15.68;5.35;;;;;;;18.67;61.41;100807.97;5010025;28;20082;-64
2022/05/11 03:22:57;;;;;;;13.93;4.80;;;;;;;18.67;61.15;100807.19;5006910;28;20077;-63
2022/05/11 03:25:26;;;;;;;9.27;4.53;;;;;;;18.71;61.12;100802.47;5021311;28;20045;-63
2022/05/11 03:27:53;;;;;;;10.50;5.07;;;;;;;18.72;61.91;100806.91;4989048;28;20058;-64
2022/05/11 03:30:21;;;;;;;12.65;5.13;;;;;;;18.57;61.60;100805.78;5009957;28;20069;-63
2022/05/11 03:35:35;;;;;;;7.07;4.88;;;;;;;19.12;61.00;100796.19;5001652;28;20061;-63
2022/05/11 03:38:04;;;;;;;8.07;4.75;;;;;;;19.21;60.70;100799.56;4999694;28;20050;-63
2022/05/11 03:40:31;;;;;;;9.43;4.70;;;;;;;19.33;59.90;100793.03;5007485;28;20065;-65
2022/05/11 03:43:01;;;;;;;11.35;4.88;;;;;;;19.16;60.03;100794.25;4998679;28;20529;-64
2022/05/11 03:45:28;;;;;;;11.15;5.45;;;;;;;19.04;59.96;100800.81;4998768;28;20050;-64
2022/05/11 03:47:56;;;;;;;11.88;5.20;;;;;;;19.01;61.04;100797.94;4998247;28;20050;-64
2022/05/11 03:50:25;;;;;;;10.80;4.75;;;;;;;19.05;60.63;100804.41;5022156;28;20080;-63
2022/05/11 03:52:53;;;;;;;8.27;5.13;;;;;;;18.69;61.41;100793.69;4989789;28;20049;-64
2022/05/11 03:55:21;;;;;;;7.78;4.57;;;;;;;18.91;61.78;100788.19;4985192;28;20506;-64
2022/05/11 03:57:49;;;;;;;11.15;5.13;;;;;;;19.13;60.70;100786.63;4988399;28;20061;-65
2022/05/11 04:00:21;;;;;;;12.30;5.40;;;;;;;18.89;61.18;100792.50;5017848;28;20045;-65
2022/05/11 04:02:50;;;;;;;9.98;5.32;;;;;;;18.87;60.41;100794.84;4998236;28;20129;-63
2022/05/11 04:05:19;;;;;;;11.50;5.30;;;;;;;18.69;61.82;100799.28;4997924;28;20625;-63
2022/05/11 04:07:46;;;;;;;13.18;5.43;;;;;;;18.91;61.28;100796.56;5006936;28;20046;-65
2022/05/11 04:10:15;;;;;;;9.20;5.68;;;;;;;18.78;60.71;100800.66;4991994;28;20246;-64
2022/05/11 04:12:43;;;;;;;8.32;5.15;;;;;;;18.85;60.96;100798.03;5008101;28;20059;-63
2022/05/11 04:15:11;;;;;;;8.85;5.10;;;;;;;18.58;61.55;100799.03;5000977;28;20058;-63
2022/05/11 04:17:39;;;;;;;10.13;5.47;;;;;;;18.56;61.61;100804.16;5005058;28;20058;-65
2022/05/11 04:20:07;;;;;;;8.85;5.38;;;;;;;18.65;61.36;100812.34;5008814;28;20046;-64
2022/05/11 04:22:35;;;;;;;13.60;5.90;;;;;;;18.54;60.87;100803.72;5008704;28;20049;-65
2022/05/11 04:25:03;;;;;;;8.10;5.57;;;;;;;18.29;61.02;100813.47;5016590;28;20050;-64
2022/05/11 04:27:32;;;;;;;10.48;5.60;;;;;;;17.84;62.98;100813.13;5015689;28;20072;-64
2022/05/11 04:30:01;;;;;;;9.63;5.95;;;;;;;17.53;64.06;100818.69;4997993;28;20054;-63
2022/05/11 04:32:29;;;;;;;10.20;5.57;;;;;;;17.53;64.89;100813.94;5002822;28;20533;-65
2022/05/11 04:34:56;;;;;;;11.88;6.25;;;;;;;17.95;63.68;100801.09;5013694;28;20054;-65
2022/05/11 04:37:24;;;;;;;11.85;5.75;;;;;;;18.39;62.81;100812.09;4983560;28;20054;-64
2022/05/11 04:39:51;;;;;;;16.35;6.03;;;;;;;18.75;62.42;100811.75;5008864;28;20081;-64
2022/05/11 04:42:18;;;;;;;12.48;5.65;;;;;;;18.81;62.08;100804.72;5004007;28;20056;-69
2022/05/11 04:44:45;;;;;;;7.30;4.80;;;;;;;18.93;61.94;100810.16;4983936;28;20066;-68
2022/05/11 04:47:14;;;;;;;10.52;5.22;;;;;;;19.04;61.37;100808.38;5000578;28;20152;-67
2022/05/11 04:49:42;;;;;;;13.05;6.03;;;;;;;18.83;61.94;100807.91;4998822;28;20057;-68
2022/05/11 04:52:13;;;;;;;9.45;5.43;;;;;;;18.64;60.45;100807.91;4982351;28;20054;-69
2022/05/11 04:54:43;;;;;;;10.68;5.80;;;;;;;18.54;61.26;100802.91;5008797;28;20486;-69
2022/05/11 04:57:11;;;;;;;13.95;5.75;;;;;;;18.82;61.77;100807.13;5006063;28;20058;-68
2022/05/11 04:59:41;;;;;;;10.82;5.85;;;;;;;19.15;61.46;100803.00;4998320;28;20538;-68
2022/05/11 05:02:20;;;;;;;11.25;5.65;;;;;;;19.19;61.07;100801.09;5014775;28;20069;-68
2022/05/11 05:04:49;;;;;;;14.20;5.50;;;;;;;19.21;60.95;100798.75;5008202;28;20046;-67
2022/05/11 05:07:17;;;;;;;10.90;5.53;;;;;;;19.03;61.33;100803.97;5008246;28;20577;-68
2022/05/11 05:09:44;;;;;;;10.75;5.35;;;;;;;19.17;60.68;100807.06;5002674;28;20045;-63
2022/05/11 05:12:13;;;;;;;11.90;6.05;;;;;;;19.21;60.88;100804.31;5015005;28;20060;-64
2022/05/11 05:14:42;;;;;;;11.85;5.63;;;;;;;19.36;60.21;100798.69;5006373;28;20053;-64
2022/05/11 05:17:16;;;;;;;10.48;5.30;;;;;;;19.30;60.44;100797.34;5019428;28;20432;-64
2022/05/11 05:19:44;;;;;;;11.00;5.40;;;;;;;19.17;59.69;100798.66;5001184;28;20073;-64
2022/05/11 05:22:12;;;;;;;12.50;5.43;;;;;;;18.99;60.36;100800.28;5015609;28;20049;-64
2022/05/11 05:24:41;;;;;;;10.52;5.32;;;;;;;19.19;60.70;100796.31;5023785;28;20049;-65
2022/05/11 05:27:11;;;;;;;12.27;4.85;;;;;;;19.19;60.14;100804.69;5001548;28;20065;-65
2022/05/11 05:32:26;;;;;;;8.00;5.00;;;;;;;19.46;59.68;100803.66;5019207;28;20052;-64
2022/05/11 05:34:57;;;;;;;13.75;5.20;;;;;;;19.22;59.57;100798.38;5001754;28;20053;-64
2022/05/11 05:37:25;;;;;;;13.43;5.30;;;;;;;18.97;59.00;100805.44;5003358;28;20064;-65
2022/05/11 05:39:52;;;;;;;13.95;5.63;;;;;;;19.22;59.71;100803.13;5016380;28;20050;-65
2022/05/11 05:42:21;;;;;;;7.85;4.75;;;;;;;19.17;59.69;100804.25;5006389;28;20053;-65
2022/05/11 05:44:49;;;;;;;11.20;5.00;;;;;;;18.92;58.02;100809.34;5014685;28;20045;-65
2022/05/11 05:47:17;;;;;;;7.93;4.70;;;;;;;18.91;60.37;100809.72;4998500;28;20046;-66
2022/05/11 05:49:44;;;;;;;9.63;4.25;;;;;;;19.00;60.62;100802.72;5002591;28;20058;-65
2022/05/11 05:52:20;;;;;;;12.25;5.22;;;;;;;19.31;58.74;100812.13;5011229;28;20516;-65
2022/05/11 05:54:48;;;;;;;13.27;4.97;;;;;;;19.11;59.06;100816.09;5012852;28;20062;-66
2022/05/11 05:57:17;;;;;;;11.35;5.03;;;;;;;19.19;58.84;100817.84;4972723;28;20065;-67
2022/05/11 05:59:45;;;;;;;15.43;5.20;;;;;;;19.37;58.42;100816.25;5017178;28;20058;-68
2022/05/11 06:02:13;;;;;;;8.80;4.10;;;;;;;19.42;58.70;100818.75;4982635;28;20046;-66
2022/05/11 06:04:45;;;;;;;27.38;4.82;;;;;;;19.46;57.88;100811.22;4994785;28;20054;-68
2022/05/11 06:07:13;;;;;;;13.20;4.50;;;;;;;19.67;55.51;100818.00;4991820;28;20054;-68
2022/05/11 06:09:41;;;;;;;13.20;5.15;;;;;;;19.70;55.45;100820.06;4996845;28;20056;-70
2022/05/11 06:12:11;;;;;;;13.20;4.13;;;;;;;21.78;50.21;100812.59;4992346;28;20056;-43
2022/05/11 06:14:39;;;;;;;17.88;4.70;;;;;;;20.91;49.98;100817.97;5009841;28;20416;-68
2022/05/11 06:17:14;;;;;;;13.13;4.25;;;;;;;20.07;52.48;100817.50;4991329;28;20053;-73
2022/05/11 06:19:42;;;;;;;12.93;4.43;;;;;;;20.06;52.80;100824.28;5001549;28;20054;-71
2022/05/11 06:22:10;;;;;;;16.55;4.63;;;;;;;19.67;53.75;100820.00;5011315;28;20046;-72
2022/05/11 06:24:37;;;;;;;9.63;5.00;;;;;;;19.57;54.34;100818.63;5010316;28;20080;-71
2022/05/11 06:27:06;;;;;;;11.20;5.10;;;;;;;19.73;54.21;100813.75;4985443;28;20061;-72
2022/05/11 06:29:33;;;;;;;9.80;4.82;;;;;;;19.22;55.97;100819.91;4989570;28;20046;-72
2022/05/11 06:32:00;;;;;;;11.35;5.00;;;;;;;19.19;55.62;100815.88;5008674;28;20050;-71
2022/05/11 06:34:28;;;;;;;11.32;4.97;;;;;;;19.45;55.63;100812.41;5011783;28;20053;-71
2022/05/11 06:36:55;;;;;;;13.00;4.40;;;;;;;19.25;55.35;100811.59;4974446;28;20050;-72
2022/05/11 06:39:23;;;;;;;10.43;4.55;;;;;;;19.25;55.39;100819.19;5011272;28;20041;-71
2022/05/11 06:41:50;;;;;;;10.35;4.32;;;;;;;19.17;55.07;100817.41;5028400;28;20042;-72
2022/05/11 06:44:18;;;;;;;9.35;3.90;;;;;;;19.35;55.19;100816.63;5005353;28;20046;-72
2022/05/11 06:46:45;;;;;;;8.38;4.20;;;;;;;19.55;54.41;100817.38;4993681;28;20073;-72
2022/05/11 06:49:12;;;;;;;9.18;4.10;;;;;;;19.20;53.60;100813.88;4993538;28;20062;-73
2022/05/11 06:51:40;;;;;;;10.02;4.40;;;;;;;19.37;54.60;100819.03;5015312;28;20050;-72
2022/05/11 06:59:43;;;;;;;9.27;4.40;;;;;;;19.28;54.37;100816.47;5015059;28;20049;-69
2022/05/11 07:02:10;;;;;;;9.48;3.75;;;;;;;19.43;53.52;100811.97;5018815;28;20045;-73
2022/05/11 07:04:38;;;;;;;16.42;4.18;;;;;;;19.62;53.34;100811.91;5017144;28;20057;-67
2022/05/11 07:07:07;;;;;;;14.27;4.20;;;;;;;19.42;54.21;100811.16;4999041;28;20062;-68
2022/05/11 07:09:35;;;;;;;9.45;3.60;;;;;;;19.59;53.34;100812.66;4999666;28;20054;-73
2022/05/11 07:12:20;;;;;;;9.68;3.53;;;;;;;19.45;53.01;100812.41;4985525;28;20037;-72
2022/05/11 07:14:50;;;;;;;10.50;4.28;;;;;;;19.83;52.16;100810.31;5014323;28;20050;-73
2022/05/11 07:17:38;;;;;;;9.20;3.65;;;;;;;19.51;52.74;100813.72;4996138;28;20054;-71
2022/05/11 07:20:15;;;;;;;6.90;3.58;;;;;;;19.18;54.56;100816.25;4994765;28;20060;-71
2022/05/11 07:22:42;;;;;;;8.43;3.58;;;;;;;19.11;54.26;100810.50;4976330;28;20050;-72
2022/05/11 07:25:14;;;;;;;9.73;3.67;;;;;;;19.54;53.67;100810.19;5009233;28;20054;-73
2022/05/11 07:27:44;;;;;;;10.38;3.30;;;;;;;19.78;52.02;100812.63;5014590;28;20101;-74
2022/05/11 07:30:15;;;;;;;6.25;3.40;;;;;;;19.83;52.61;100806.72;4987490;28;20053;-72
2022/05/11 07:32:42;;;;;;;7.30;3.70;;;;;;;20.07;51.95;100815.50;5013684;28;20057;-73
2022/05/11 07:35:10;;;;;;;6.50;3.40;;;;;;;20.38;51.42;100813.63;4994054;28;20432;-74
2022/05/11 07:37:37;;;;;;;13.20;3.65;;;;;;;20.22;50.54;100811.00;5011715;28;20065;-72
2022/05/11 07:40:06;;;;;;;14.20;3.55;;;;;;;20.56;50.63;100812.69;4989790;28;20148;-67
2022/05/11 07:42:34;;;;;;;10.10;4.47;;;;;;;20.36;50.16;100808.41;5014740;28;20053;-66
2022/05/11 07:45:03;;;;;;;9.15;3.70;;;;;;;20.70;49.96;100812.91;5009236;28;20057;-71
2022/05/11 07:47:32;;;;;;;11.88;3.40;;;;;;;20.97;48.86;100813.66;5015784;28;20050;-67
2022/05/11 07:50:00;;;;;;;8.73;3.25;;;;;;;20.86;49.04;100807.09;5016022;28;20055;-67
2022/05/11 07:52:28;;;;;;;5.65;3.05;;;;;;;21.05;48.23;100804.19;4993956;28;20065;-72
2022/05/11 07:54:55;;;;;;;7.55;3.00;;;;;;;21.21;46.80;100810.38;4997832;28;20065;-72
2022/05/11 08:00:09;;;;;;;9.73;3.45;;;;;;;21.59;46.31;100807.19;5014442;28;20053;-68
2022/05/11 08:03:18;;;;;;;7.53;2.83;;;;;;;20.86;45.11;100812.72;5000629;28;20056;-71
2022/05/11 08:05:45;;;;;;;4.15;2.53;;;;;;;21.32;45.36;100811.31;4990994;28;20077;-72
2022/05/11 08:08:13;;;;;;;9.07;3.20;;;;;;;21.42;45.30;100809.81;4994060;28;20072;-73
2022/05/11 08:10:43;;;;;;;6.25;2.85;;;;;;;21.47;45.29;100818.69;5006792;28;20608;-71
2022/05/11 08:13:12;;;;;;;5.82;2.67;;;;;;;21.51;45.26;100818.72;5002886;28;20055;-72
2022/05/11 08:15:43;;;;;;;7.30;2.85;;;;;;;21.92;43.84;100807.13;4978180;28;20057;-72
2022/05/11 08:18:13;;;;;;;9.10;2.80;;;;;;;21.71;43.96;100809.72;5014273;28;20075;-67
2022/05/11 08:20:43;;;;;;;6.53;2.42;;;;;;;21.60;44.17;100800.38;5009706;28;20048;-68
2022/05/11 08:23:12;;;;;;;9.88;2.50;;;;;;;21.50;43.92;100801.09;5013034;28;20052;-66
2022/05/11 08:25:41;;;;;;;7.63;2.70;;;;;;;21.22;44.41;100804.38;4995084;28;20054;-66
2022/05/11 08:28:12;;;;;;;14.70;3.53;;;;;;;21.57;43.86;100806.75;5005425;28;20061;-68
2022/05/11 08:33:27;;;;;;;7.70;2.20;;;;;;;21.70;42.91;100810.09;5022111;28;20061;-67
2022/05/11 08:36:17;;;;;;;7.03;2.55;;;;;;;21.50;42.30;100806.69;4995123;28;20516;-67
2022/05/11 08:38:45;;;;;;;;;;;;;;;21.33;43.12;100804.50;5015701;28;20049;-72
2022/05/11 08:41:32;;;;;;;13.27;3.03;;;;;;;21.56;42.12;100805.16;5005969;28;19921;-72
2022/05/11 08:44:06;;;;;;;7.15;2.03;;;;;;;21.50;42.75;100811.47;5010777;28;20045;-70
2022/05/11 08:46:57;;;;;;;8.77;2.42;;;;;;;21.98;42.10;100808.41;4993541;28;20060;-71
2022/05/11 08:49:54;;;;;;;9.23;2.40;;;;;;;22.15;41.92;100802.13;4978315;28;20052;-71
2022/05/11 08:52:52;;;;;;;7.53;2.33;;;;;;;22.47;41.45;100802.34;4958617;28;20524;-67
2022/05/11 08:55:31;;;;;;;10.45;2.30;;;;;;;22.64;41.42;100803.66;5009349;28;20651;-72
2022/05/11 08:58:06;;;;;;;7.97;2.20;;;;;;;22.74;40.96;100800.91;5009599;28;20054;-71
2022/05/11 09:00:35;;;;;;;10.20;2.75;;;;;;;22.77;40.74;100794.50;4996071;28;20053;-71
2022/05/11 09:03:15;;;;;;;9.15;2.70;;;;;;;22.80;40.73;100804.16;4976730;28;20045;-72
2022/05/11 09:05:42;;;;;;;11.87;2.40;;;;;;;22.80;39.99;100798.53;4979228;28;20053;-68
2022/05/11 09:08:10;;;;;;;7.90;2.22;;;;;;;22.97;39.40;100797.81;5002248;28;20061;-68
2022/05/11 09:10:39;;;;;;;10.73;2.40;;;;;;;22.72;37.44;100800.50;5012811;28;20046;-67
2022/05/11 09:13:10;;;;;;;9.73;2.60;;;;;;;22.56;38.93;100796.41;5010569;28;20409;-67
2022/05/11 09:15:53;;;;;;;8.88;2.30;;;;;;;22.96;37.92;100794.19;5010589;28;20058;-66
2022/05/11 09:18:43;;;;;;;8.35;2.17;;;;;;;22.68;38.09;100799.69;4994949;28;20978;-67
2022/05/11 09:21:19;;;;;;;9.93;2.35;;;;;;;22.39;39.43;100799.88;5010088;28;20057;-67
2022/05/11 09:24:13;;;;;;;8.00;1.92;;;;;;;22.57;39.26;100809.22;5012557;28;20045;-65
2022/05/11 09:26:46;;;;;;;8.27;2.47;;;;;;;22.56;38.56;100810.44;4994008;28;20061;-68
2022/05/11 09:29:19;;;;;;;4.82;1.85;;;;;;;22.53;37.37;100797.94;5004924;28;20054;-68
2022/05/11 09:31:50;;;;;;;8.30;1.95;;;;;;;22.62;36.66;100792.00;5005576;28;20057;-66
2022/05/11 09:34:29;;;;;;;3.70;1.70;;;;;;;22.43;35.94;100798.69;5009893;28;20046;-66
2022/05/11 09:37:01;;;;;;;15.70;2.35;;;;;;;22.53;36.13;100806.38;5008096;28;20049;-64
2022/05/11 09:39:31;;;;;;;8.93;2.15;;;;;;;22.83;36.55;100792.94;4995452;28;20058;-63
2022/05/11 09:42:12;;;;;;;7.50;2.42;;;;;;;22.85;37.14;100793.34;5007055;28;20054;-65
2022/05/11 09:44:41;;;;;;;7.53;2.25;;;;;;;22.79;38.06;100785.69;4998330;28;20058;-65
2022/05/11 09:47:31;;;;;;;11.05;1.98;;;;;;;23.11;36.45;100786.63;5002146;28;20046;-71
2022/05/11 09:50:21;;;;;;;7.70;1.95;;;;;;;23.30;36.98;100783.50;5012265;28;20061;-68
2022/05/11 09:52:49;;;;;;;11.55;2.17;;;;;;;22.84;36.36;100785.31;4972675;28;20042;-67
2022/05/11 09:55:24;;;;;;;9.18;2.47;;;;;;;22.85;36.96;100778.50;5006084;28;20061;-65
2022/05/11 09:58:02;;;;;;;11.48;2.55;;;;;;;22.74;37.05;100781.25;4975906;28;20054;-66
2022/05/11 10:00:42;;;;;;;7.55;2.10;;;;;;;22.83;37.37;100778.91;5011214;28;20636;-72
2022/05/11 10:03:13;;;;;;;11.93;2.30;;;;;;;23.13;37.34;100778.59;4977462;28;20046;-66
2022/05/11 10:05:44;;;;;;;7.85;2.58;;;;;;;22.98;37.82;100772.13;4995801;28;20054;-67
2022/05/11 10:08:15;;;;;;;9.25;1.88;;;;;;;23.06;36.87;100768.16;5009834;28;20057;-71
2022/05/11 10:10:45;;;;;;;8.82;2.08;;;;;;;23.04;37.16;100769.75;5010225;28;20050;-70
2022/05/11 10:13:23;;;;;;;7.70;2.20;;;;;;;23.33;37.33;100783.50;4978568;28;20096;-72
2022/05/11 10:21:53;;;;;;;10.15;1.90;;;;;;;23.36;37.92;100777.09;4995626;28;20152;-66
2022/05/11 10:24:26;;;;;;;10.63;2.22;;;;;;;23.24;38.11;100780.22;5014137;28;20050;-67
2022/05/11 10:27:32;;;;;;;4.78;1.80;;;;;;;23.43;37.61;100782.72;4982820;28;20058;-67
2022/05/11 10:30:09;;;;;;;6.88;2.40;;;;;;;23.42;37.97;100783.94;5014461;28;20045;-67
2022/05/11 10:32:47;;;;;;;7.35;3.05;;;;;;;23.74;37.39;100781.19;5018678;28;20045;-67
2022/05/11 10:35:21;;;;;;;7.90;2.58;;;;;;;23.53;38.07;100778.34;4993628;28;20058;-66
2022/05/11 10:37:54;;;;;;;10.73;3.13;;;;;;;23.81;37.78;100778.38;4996149;28;20112;-65
2022/05/11 10:40:44;;;;;;;8.73;3.60;;;;;;;23.87;37.78;100784.41;5013763;28;20050;-66
2022/05/11 10:43:38;;;;;;;6.95;3.33;;;;;;;24.04;37.77;100778.78;5013734;28;20061;-67
2022/05/11 10:46:52;;;;;;;9.50;2.40;;;;;;;24.00;37.92;100778.00;5013548;28;20118;-65
2022/05/11 10:49:37;;;;;;;6.90;2.50;;;;;;;23.87;38.43;100785.19;4992999;28;20502;-67
2022/05/11 10:52:14;;;;;;;6.03;2.00;;;;;;;23.86;38.82;100785.59;5006741;28;20087;-66
2022/05/11 10:54:50;;;;;;;8.65;2.58;;;;;;;23.95;39.08;100778.38;4990778;28;20085;-66
2022/05/11 10:57:47;;;;;;;6.93;2.40;;;;;;;23.96;38.59;100776.34;5001282;28;20061;-66
2022/05/11 11:00:24;;;;;;;7.13;2.13;;;;;;;23.74;39.24;100767.09;4968057;28;20072;-66
2022/05/11 11:03:16;;;;;;;11.70;2.50;;;;;;;24.15;38.62;100759.88;4989123;28;20639;-66
2022/05/11 11:07:11;;;;;;;8.52;2.60;;;;;;;24.05;39.45;100768.34;5011856;28;20058;-67
2022/05/11 11:08:47;;;;;;;8.18;2.05;;;;;;;24.01;39.54;100771.16;5014967;28;20409;-67
2022/05/11 11:11:22;;;;;;;6.50;2.10;;;;;;;23.83;39.94;100752.63;4991195;28;20053;-66
2022/05/11 11:13:54;;;;;;;7.28;2.30;;;;;;;23.89;39.84;100751.81;4971561;28;20401;-67
2022/05/11 11:16:38;;;;;;;33.65;27.23;;;;;;;23.77;40.32;100762.69;5003214;28;20536;-66
2022/05/11 11:19:06;;;;;;;;;;;;;;;23.77;40.38;100759.84;5000363;28;20450;-66
2022/05/11 11:21:33;;;;;;;22.35;13.80;;;;;;;23.77;40.52;100751.41;5014978;28;19936;-66
2022/05/11 11:24:17;;;;;;;12.35;5.32;;;;;;;23.96;40.06;100751.81;5016356;28;20136;-64
2022/05/11 11:26:51;;;;;;;11.85;4.50;;;;;;;23.93;39.40;100741.38;5015597;28;20058;-65
2022/05/11 11:29:22;;;;;;;17.80;7.55;;;;;;;24.07;39.70;100743.41;4989364;28;20046;-64
2022/05/11 11:31:59;;;;;;;20.58;13.38;;;;;;;24.41;39.01;100742.53;5003253;28;20058;-68
2022/05/11 11:34:30;;;;;;;12.35;3.83;;;;;;;24.47;38.42;100748.56;4995848;28;20053;-66
2022/05/11 11:36:59;;;;;;;10.25;2.53;;;;;;;24.70;38.36;100748.09;4997570;28;20049;-65
2022/05/11 11:39:44;;;;;;;10.80;2.75;;;;;;;24.69;37.60;100749.31;4973864;28;20053;-66
2022/05/11 11:42:12;;;;;;;10.70;2.63;;;;;;;24.42;37.29;100732.88;5014051;28;20069;-66
2022/05/11 11:44:46;;;;;;;7.82;3.10;;;;;;;24.82;36.50;100723.09;5001402;28;20062;-65
2022/05/11 11:47:26;;;;;;;7.35;2.30;;;;;;;24.94;35.96;100722.66;4973539;28;20065;-66
2022/05/11 11:49:56;;;;;;;6.10;2.17;;;;;;;24.79;36.43;100731.56;5013563;28;20053;-68
2022/05/11 11:52:32;;;;;;;11.23;2.10;;;;;;;24.77;36.58;100717.09;4992734;28;20137;-65
2022/05/11 11:55:00;;;;;;;8.85;2.05;;;;;;;24.53;37.16;100722.38;5003175;28;20050;-65
2022/05/11 11:57:30;;;;;;;6.18;1.90;;;;;;;24.60;37.41;100710.28;5012457;28;20061;-65
2022/05/11 11:59:58;;;;;;;;;;;;;;;24.83;37.11;100715.44;5004853;28;20050;-65
2022/05/11 12:02:36;;;;;;;9.23;2.10;;;;;;;24.86;37.33;100711.81;4995637;28;19932;-65
2022/05/11 12:05:37;;;;;;;8.90;2.03;;;;;;;24.76;37.12;100719.09;5009564;28;20045;-66
2022/05/11 12:16:53;;;;;;;7.20;2.35;;;;;;;25.03;37.19;100716.56;4992341;28;20790;-67
2022/05/11 12:19:24;;;;;;;6.25;2.08;;;;;;;25.22;36.68;100713.22;5005822;28;20057;-67